Main page
METAR-TAF:

METAR-TAF

Airports :

Muscat International Airport

Muscat, Oman

latitude: 23-35N, longitude: 058-17E, elevation: 8 m

Current weather observation

The report was made 34 minutes ago, at 07:50 UTC
Wind 9 kt from the Northeast
Temperature 38°C
Humidity 33%
Pressure 998 hPa
Visibility 10 km or more
no clouds below 1500 m and no cumulonimbus

METAR: OOMS 150750Z 05009KT CAVOK 38/19 Q0998 NOSIG

Time: 12:24 (08:24 UTC)

Forecast

The report was made 3 hours and 24 minutes ago, at 05:00 UTC
Forecast valid from 15 at 06 UTC to 16 at 12 UTC
Wind 13 kt from the Northeast
Visibility: 8000 m
Few clouds at a height of 2500 ft
Becoming
from 15 at 16 UTC to 15 at 18 UTC
Wind 2 kt from variable directions
Probability 30% :
Temporary
from 15 at 23 UTC to 16 at 05 UTC
Scattered clouds at a height of 2000 ft
Becoming
from 16 at 06 UTC to 16 at 08 UTC
Wind 13 kt from the East/Northeast

TAF: OOMS 150500Z 1506/1612 05013KT 8000 FEW025 BECMG 1516/1518 VRB02KT PROB30 TEMPO 1523/1605 SCT020 BECMG 1606/1608 06013KT

Weather observations and forecasts of more than 4000 airports (METAR and TAF reports).

The available stations are represented by yellow and red dots on the map.

Hover mouse over dot to see the name of the station.

Then click to see weather observations and forecasts.

To change the map : click on the green buttons with a black cross to zoom in, on the green button with a dash to zoom out, or on the green arrows for adjacent maps.


METAR-TAF: